createdAt,value
2019-05-22T00:02:30.326Z,52.77
2019-05-22T00:05:19.507Z,52.68
2019-05-22T00:07:53.602Z,52.49
2019-05-22T00:10:31.330Z,52.33
2019-05-22T00:13:08.278Z,51.26
2019-05-22T00:15:42.664Z,51.59
2019-05-22T00:18:16.875Z,52.03
2019-05-22T00:20:51.088Z,52.24
2019-05-22T00:23:27.186Z,52.46
2019-05-22T00:26:02.197Z,52.59
2019-05-22T00:28:38.896Z,52.69
2019-05-22T00:31:14.750Z,53.42
2019-05-22T00:33:49.884Z,53.91
2019-05-22T00:36:24.529Z,54.29
2019-05-22T00:38:58.518Z,54.73
2019-05-22T00:41:35.607Z,55.20
2019-05-22T00:44:13.404Z,54.11
2019-05-22T00:46:48.682Z,53.75
2019-05-22T00:49:25.455Z,53.46
2019-05-22T00:52:25.739Z,53.12
2019-05-22T00:55:15.727Z,52.92
2019-05-22T00:58:00.076Z,52.70
2019-05-22T01:00:46.278Z,52.60
2019-05-22T01:03:25.927Z,52.47
2019-05-22T01:06:00.441Z,52.76
2019-05-22T01:08:38.040Z,52.91
2019-05-22T01:11:15.217Z,53.10
2019-05-22T01:13:49.355Z,53.26
2019-05-22T01:16:25.724Z,54.10
2019-05-22T01:19:00.818Z,54.09
2019-05-22T01:21:35.450Z,54.08
2019-05-22T01:24:11.512Z,54.08
2019-05-22T01:26:47.508Z,54.08
2019-05-22T01:29:22.317Z,54.02
2019-05-22T01:32:02.254Z,54.09
2019-05-22T01:34:37.393Z,54.04
2019-05-22T01:37:16.038Z,54.13
2019-05-22T01:40:13.770Z,54.11
2019-05-22T01:42:48.969Z,54.17
2019-05-22T01:45:25.684Z,54.27
2019-05-22T01:48:04.032Z,53.64
2019-05-22T01:50:58.254Z,53.61
2019-05-22T01:53:38.368Z,54.14
2019-05-22T01:56:14.155Z,54.88
2019-05-22T01:58:48.580Z,55.37
2019-05-22T02:01:27.429Z,56.23
2019-05-22T02:04:02.701Z,56.64
2019-05-22T02:06:37.841Z,55.97
2019-05-22T02:09:39.306Z,56.39
2019-05-22T02:12:28.888Z,56.59
2019-05-22T02:15:03.915Z,56.82
2019-05-22T02:17:38.317Z,56.92
2019-05-22T02:20:14.898Z,56.43
2019-05-22T02:22:50.722Z,57.24
2019-05-22T02:25:25.885Z,56.22
2019-05-22T02:28:01.525Z,55.78
2019-05-22T02:30:36.715Z,55.49
2019-05-22T02:33:11.041Z,55.21
2019-05-22T02:35:45.942Z,55.13
2019-05-22T02:38:20.139Z,55.70
2019-05-22T02:40:55.810Z,56.11
2019-05-22T02:43:30.946Z,56.54
2019-05-22T02:46:05.438Z,56.83
2019-05-22T02:48:42.480Z,57.78
2019-05-22T02:51:16.731Z,57.04
2019-05-22T02:53:53.646Z,56.77
2019-05-22T02:56:28.215Z,56.63
2019-05-22T02:59:02.860Z,55.85
2019-05-22T03:01:38.296Z,55.10
2019-05-22T03:04:12.405Z,55.95
2019-05-22T03:06:47.492Z,57.13
2019-05-22T03:09:30.572Z,57.84
2019-05-22T03:12:09.599Z,57.93
2019-05-22T03:14:43.925Z,57.03
2019-05-22T03:17:31.411Z,57.33
2019-05-22T03:20:15.000Z,57.96
2019-05-22T03:23:15.525Z,58.17
2019-05-22T03:25:49.759Z,58.26
2019-05-22T03:28:24.387Z,58.23
2019-05-22T03:30:58.403Z,58.03
2019-05-22T03:33:32.342Z,56.86
2019-05-22T03:36:16.315Z,56.79
2019-05-22T03:38:51.485Z,54.73
2019-05-22T03:41:26.665Z,53.61
2019-05-22T03:44:02.028Z,52.99
2019-05-22T03:46:44.918Z,52.44
2019-05-22T03:49:30.562Z,52.04
2019-05-22T03:52:01.060Z,51.79
2019-05-22T03:54:36.097Z,51.67
2019-05-22T03:57:11.105Z,51.58
2019-05-22T03:59:46.040Z,51.44
2019-05-22T04:02:20.794Z,51.31
2019-05-22T04:04:55.135Z,51.19
2019-05-22T04:07:29.587Z,51.04
2019-05-22T04:10:06.037Z,50.93
2019-05-22T04:12:41.081Z,50.86
2019-05-22T04:15:16.037Z,50.88
2019-05-22T04:17:50.522Z,50.75
2019-05-22T04:20:25.533Z,50.62
2019-05-22T04:23:02.224Z,50.56
2019-05-22T04:25:36.272Z,50.48
2019-05-22T04:28:11.013Z,50.38
2019-05-22T04:30:46.250Z,50.29
2019-05-22T04:33:21.938Z,50.30
2019-05-22T04:35:55.900Z,50.21
2019-05-22T04:38:30.491Z,50.10
2019-05-22T04:41:06.972Z,50.01
2019-05-22T04:43:41.801Z,49.93
2019-05-22T04:46:16.554Z,49.86
2019-05-22T04:48:50.860Z,49.80
2019-05-22T04:51:33.282Z,49.75
2019-05-22T04:54:07.458Z,49.72
2019-05-22T04:56:41.839Z,49.68
2019-05-22T04:59:17.037Z,49.66
2019-05-22T05:01:51.089Z,49.58
2019-05-22T05:04:26.496Z,49.49
2019-05-22T05:07:00.656Z,49.43
2019-05-22T05:09:34.951Z,49.57
2019-05-22T05:12:10.627Z,50.82
2019-05-22T05:14:44.815Z,50.70
2019-05-22T05:17:19.402Z,50.57
2019-05-22T05:19:53.756Z,50.32
2019-05-22T05:22:44.147Z,50.19
2019-05-22T05:25:18.926Z,50.00
2019-05-22T05:27:53.137Z,49.79
2019-05-22T05:30:28.360Z,49.56
2019-05-22T05:33:02.838Z,49.53
2019-05-22T05:35:38.902Z,49.58
2019-05-22T05:38:14.688Z,49.47
2019-05-22T05:40:49.643Z,49.21
2019-05-22T05:43:26.277Z,48.96
2019-05-22T05:46:00.789Z,48.91
2019-05-22T05:48:35.716Z,48.75
2019-05-22T05:51:43.782Z,48.70
2019-05-22T05:54:20.660Z,48.67
2019-05-22T05:56:56.162Z,48.64
2019-05-22T05:59:32.372Z,48.51
2019-05-22T06:02:07.168Z,48.41
2019-05-22T06:04:42.163Z,48.36
2019-05-22T06:07:29.119Z,48.36
2019-05-22T06:10:43.551Z,48.22
2019-05-22T06:13:17.495Z,48.26
2019-05-22T06:16:25.521Z,48.29
2019-05-22T06:18:59.637Z,48.21
2019-05-22T06:21:34.664Z,48.17
2019-05-22T06:24:30.629Z,48.09
2019-05-22T06:27:31.959Z,48.07
2019-05-22T06:30:10.995Z,47.88
2019-05-22T06:33:26.628Z,47.81
2019-05-22T06:36:01.794Z,47.76
2019-05-22T06:39:00.645Z,47.55
2019-05-22T06:41:38.205Z,47.57
2019-05-22T06:44:43.649Z,47.41
2019-05-22T06:47:24.063Z,47.30
2019-05-22T06:49:59.288Z,47.00
2019-05-22T06:52:33.594Z,46.76
2019-05-22T06:55:08.201Z,46.77
2019-05-22T06:57:42.489Z,46.77
2019-05-22T07:00:24.547Z,46.39
2019-05-22T07:02:58.800Z,46.17
2019-05-22T07:05:33.577Z,46.31
2019-05-22T07:08:08.028Z,46.27
2019-05-22T07:10:44.128Z,46.21
2019-05-22T07:13:20.578Z,46.18
2019-05-22T07:15:56.239Z,46.17
2019-05-22T07:18:32.793Z,46.29
2019-05-22T07:21:07.348Z,46.11
2019-05-22T07:23:42.733Z,46.13
2019-05-22T07:26:17.129Z,46.35
2019-05-22T07:28:51.695Z,46.57
2019-05-22T07:31:29.680Z,46.65
2019-05-22T07:34:04.521Z,46.72
2019-05-22T07:36:38.730Z,46.67
2019-05-22T07:39:13.604Z,46.66
2019-05-22T07:41:48.078Z,46.62
2019-05-22T07:44:22.495Z,46.58
2019-05-22T07:46:57.377Z,46.50
2019-05-22T07:49:33.502Z,46.41
2019-05-22T07:52:09.124Z,46.34
2019-05-22T07:54:43.477Z,46.20
2019-05-22T07:57:21.643Z,46.02
2019-05-22T07:59:55.739Z,46.00
2019-05-22T08:02:32.899Z,45.80
2019-05-22T08:05:08.091Z,45.76
2019-05-22T08:07:42.870Z,44.37
2019-05-22T08:10:18.879Z,45.07
2019-05-22T08:12:53.359Z,45.99
2019-05-22T08:15:30.512Z,45.99
2019-05-22T08:18:05.338Z,46.21
2019-05-22T08:20:40.308Z,46.51
2019-05-22T08:23:14.711Z,46.65
2019-05-22T08:25:49.606Z,46.65
2019-05-22T08:28:25.546Z,47.52
2019-05-22T08:30:59.716Z,48.91
2019-05-22T08:33:35.887Z,50.69
2019-05-22T08:36:12.706Z,51.88
2019-05-22T08:38:48.361Z,51.79
2019-05-22T08:41:26.864Z,50.82
2019-05-22T08:44:15.302Z,50.47
2019-05-22T08:46:38.243Z,50.11
2019-05-22T08:49:12.927Z,49.67
2019-05-22T08:51:50.705Z,49.16
2019-05-22T08:54:25.083Z,49.16
2019-05-22T08:56:59.401Z,48.97
2019-05-22T08:59:33.781Z,48.95
2019-05-22T09:02:10.367Z,48.80
2019-05-22T09:04:45.055Z,48.76
2019-05-22T09:07:19.871Z,48.68
2019-05-22T09:09:54.134Z,48.49
2019-05-22T09:12:28.211Z,48.34
2019-05-22T09:15:04.800Z,48.31
2019-05-22T09:17:39.114Z,48.19
2019-05-22T09:20:13.547Z,48.16
2019-05-22T09:22:48.612Z,48.12
2019-05-22T09:25:23.263Z,48.16
2019-05-22T09:27:58.549Z,48.19
2019-05-22T09:30:33.492Z,48.18
2019-05-22T09:33:09.440Z,48.20
2019-05-22T09:35:44.304Z,48.04
2019-05-22T09:38:18.632Z,47.97
2019-05-22T09:40:52.988Z,47.84
2019-05-22T09:43:27.322Z,47.71
2019-05-22T09:46:02.052Z,47.56
2019-05-22T09:48:38.122Z,47.47
2019-05-22T09:51:12.532Z,47.69
2019-05-22T09:53:48.049Z,46.46
2019-05-22T09:56:22.601Z,45.71
2019-05-22T09:58:57.099Z,45.71
2019-05-22T10:01:31.665Z,45.61
2019-05-22T10:04:07.558Z,45.05
2019-05-22T10:06:42.380Z,44.76
2019-05-22T10:09:16.535Z,44.18
2019-05-22T10:11:51.052Z,43.92
2019-05-22T10:14:25.918Z,43.76
2019-05-22T10:17:01.734Z,43.68
2019-05-22T10:19:36.291Z,43.76
2019-05-22T10:22:11.497Z,44.00
2019-05-22T10:24:50.170Z,44.06
2019-05-22T10:27:22.750Z,44.05
2019-05-22T10:29:58.011Z,43.80
2019-05-22T10:32:34.262Z,43.54
2019-05-22T10:35:11.893Z,43.23
2019-05-22T10:37:47.027Z,42.86
2019-05-22T10:40:22.302Z,42.53
2019-05-22T10:42:56.746Z,42.27
2019-05-22T10:45:31.299Z,41.97
2019-05-22T11:37:07.103Z,40.17
2019-05-22T11:39:45.065Z,40.06
2019-05-22T11:42:18.686Z,40.13
2019-05-22T11:44:52.928Z,40.16
2019-05-22T11:47:27.584Z,40.28
2019-05-22T11:54:20.280Z,40.53
2019-05-22T11:56:52.916Z,41.17
2019-05-22T11:59:27.936Z,41.40
2019-05-22T12:02:39.682Z,41.40
2019-05-22T12:05:14.855Z,41.41
2019-05-22T12:07:49.866Z,44.52
2019-05-22T12:10:25.168Z,45.20
2019-05-22T12:12:59.942Z,45.75
2019-05-22T12:24:43.704Z,47.00
2019-05-22T12:27:18.366Z,47.30
2019-05-22T12:29:53.419Z,47.43
2019-05-22T12:32:28.411Z,47.63
2019-05-22T12:35:02.946Z,48.54
2019-05-22T12:37:37.267Z,48.64
2019-05-22T12:40:15.023Z,48.82
2019-05-22T12:42:49.374Z,48.88
2019-05-22T12:45:28.676Z,49.15
2019-05-22T12:48:04.616Z,49.17
2019-05-22T12:50:38.820Z,49.32
2019-05-22T12:53:15.246Z,49.47
2019-05-22T12:55:49.383Z,49.49
2019-05-22T12:58:24.570Z,49.56
2019-05-22T13:01:00.472Z,49.63
2019-05-22T13:03:35.904Z,49.74
2019-05-22T13:06:11.181Z,49.82
2019-05-22T13:08:46.213Z,48.89
2019-05-22T13:11:20.862Z,47.53
2019-05-22T13:13:55.430Z,46.75
2019-05-22T13:16:31.475Z,46.40
2019-05-22T13:19:05.694Z,46.16
2019-05-22T13:21:43.490Z,46.31
2019-05-22T13:24:23.082Z,47.40
2019-05-22T13:26:59.371Z,47.42
2019-05-22T13:29:33.488Z,47.79
2019-05-22T13:32:09.823Z,47.87
2019-05-22T13:34:44.803Z,48.46
2019-05-22T13:37:19.077Z,48.54
2019-05-22T13:39:54.172Z,48.52
2019-05-22T13:42:28.822Z,48.59
2019-05-22T13:45:03.002Z,48.61
2019-05-22T13:47:38.475Z,48.71
2019-05-22T13:50:13.585Z,48.77
2019-05-22T13:52:50.179Z,48.79
2019-05-22T13:55:24.790Z,48.75
2019-05-22T13:57:59.604Z,48.80
2019-05-22T14:00:33.834Z,48.91
2019-05-22T14:03:08.787Z,48.77
2019-05-22T14:05:44.003Z,48.74
2019-05-22T14:08:19.649Z,48.64
2019-05-22T14:10:55.352Z,48.64
2019-05-22T14:13:30.739Z,48.60
2019-05-22T14:16:04.654Z,48.59
2019-05-22T14:18:38.878Z,48.56
2019-05-22T14:21:13.219Z,48.56
2019-05-22T14:23:47.395Z,48.53
2019-05-22T14:26:21.518Z,48.55
2019-05-22T14:28:55.398Z,48.53
2019-05-22T14:31:29.652Z,48.48
2019-05-22T14:34:04.621Z,48.47
2019-05-22T14:36:39.119Z,48.47
2019-05-22T14:39:14.730Z,48.49
2019-05-22T14:41:48.879Z,48.47
2019-05-22T14:44:24.192Z,48.52
2019-05-22T14:47:12.315Z,48.60
2019-05-22T14:49:34.374Z,48.56
2019-05-22T14:52:09.180Z,48.50
2019-05-22T14:54:43.497Z,48.52
2019-05-22T14:57:18.197Z,48.58
2019-05-22T14:59:52.303Z,48.49
2019-05-22T15:02:26.941Z,48.51
2019-05-22T15:05:01.168Z,48.55
2019-05-22T15:07:36.331Z,48.49
2019-05-22T15:10:11.550Z,48.52
2019-05-22T15:12:46.632Z,48.52
2019-05-22T15:15:22.813Z,48.49
2019-05-22T15:17:57.064Z,48.50
2019-05-22T15:20:54.357Z,48.52
2019-05-22T15:23:28.674Z,48.48
2019-05-22T15:26:03.281Z,48.50
2019-05-22T15:28:37.871Z,48.94
2019-05-22T15:31:12.097Z,48.94
2019-05-22T15:33:46.485Z,48.83
2019-05-22T15:36:23.452Z,48.83
2019-05-22T15:38:58.491Z,48.71
2019-05-22T15:41:33.472Z,48.62
2019-05-22T15:44:08.886Z,48.60
2019-05-22T15:46:44.071Z,48.60
2019-05-22T15:49:19.977Z,49.33
2019-05-22T15:51:54.120Z,49.33
2019-05-22T15:54:31.451Z,47.38
2019-05-22T15:57:09.656Z,45.64
2019-05-22T15:59:43.633Z,44.18
2019-05-22T16:02:21.870Z,42.99
2019-05-22T16:04:59.732Z,42.28
2019-05-22T16:07:34.419Z,42.03
2019-05-22T16:10:09.045Z,41.84
2019-05-22T16:12:44.017Z,41.75
2019-05-22T16:15:20.262Z,41.96
2019-05-22T16:18:10.565Z,42.12
2019-05-22T16:20:33.371Z,42.23
2019-05-22T16:23:08.099Z,42.55
2019-05-22T16:25:43.148Z,42.58
2019-05-22T16:28:17.597Z,42.42
2019-05-22T16:30:51.801Z,41.90
2019-05-22T16:33:27.079Z,41.46
2019-05-22T16:36:01.271Z,41.12
2019-05-22T16:38:36.831Z,40.82
2019-05-22T16:41:11.043Z,40.66
2019-05-22T16:43:50.058Z,40.90
2019-05-22T16:46:25.689Z,40.88
2019-05-22T16:49:01.195Z,40.92
2019-05-22T16:51:36.484Z,41.00
2019-05-22T16:54:11.315Z,41.07
2019-05-22T16:56:45.554Z,41.29
2019-05-22T16:59:21.174Z,41.41
2019-05-22T17:01:59.351Z,41.52
2019-05-22T17:04:32.008Z,41.62
2019-05-22T17:07:08.529Z,41.75
2019-05-22T17:09:43.964Z,41.93
2019-05-22T17:12:20.088Z,42.23
2019-05-22T17:14:55.147Z,42.44
2019-05-22T17:17:30.156Z,44.35
2019-05-22T17:20:05.675Z,44.32
2019-05-22T17:22:41.047Z,44.43
2019-05-22T17:25:16.933Z,44.88
2019-05-22T17:27:52.819Z,45.26
2019-05-22T17:30:28.163Z,45.56
2019-05-22T17:33:02.994Z,45.94
2019-05-22T17:35:38.346Z,46.89
2019-05-22T17:38:13.603Z,47.03
2019-05-22T17:40:49.638Z,47.03
2019-05-22T17:43:24.135Z,47.13
2019-05-22T17:45:59.673Z,47.56
2019-05-22T17:48:34.985Z,47.68
2019-05-22T17:51:10.279Z,47.94
2019-05-22T17:53:44.621Z,48.06
2019-05-22T17:56:19.523Z,48.27
2019-05-22T17:58:54.091Z,48.44
2019-05-22T18:01:28.367Z,48.52
2019-05-22T18:04:02.925Z,48.63
2019-05-22T18:06:37.466Z,48.79
2019-05-22T18:09:11.770Z,48.87
2019-05-22T18:11:45.764Z,48.88
2019-05-22T18:14:20.100Z,48.99
2019-05-22T18:16:54.327Z,49.65
2019-05-22T18:19:28.824Z,49.83
2019-05-22T18:22:03.704Z,50.17
2019-05-22T18:24:38.009Z,50.54
2019-05-22T18:27:12.058Z,50.85
2019-05-22T18:29:46.164Z,51.07
2019-05-22T18:32:20.304Z,51.25
2019-05-22T18:34:54.353Z,51.43
2019-05-22T18:37:28.364Z,51.57
2019-05-22T18:40:02.971Z,51.70
2019-05-22T18:42:37.345Z,51.86
2019-05-22T18:45:12.366Z,51.64
2019-05-22T18:47:46.955Z,52.45
2019-05-22T18:50:21.243Z,52.28
2019-05-22T18:52:55.606Z,52.39
2019-05-22T18:55:29.872Z,52.49
2019-05-22T18:58:04.342Z,53.04
2019-05-22T19:00:38.662Z,53.58
2019-05-22T19:03:12.722Z,53.51
2019-05-22T19:05:47.168Z,53.41
2019-05-22T19:08:21.555Z,53.33
2019-05-22T19:10:55.878Z,53.25
2019-05-22T19:13:30.630Z,53.23
2019-05-22T19:16:05.505Z,52.70
2019-05-22T19:18:39.663Z,53.76
2019-05-22T19:21:13.820Z,54.25
2019-05-22T19:23:48.186Z,54.03
2019-05-22T19:26:22.933Z,53.87
2019-05-22T19:28:57.841Z,53.87
2019-05-22T19:31:32.108Z,53.73
2019-05-22T19:34:06.430Z,53.71
2019-05-22T19:36:40.381Z,53.72
2019-05-22T19:39:14.627Z,53.53
2019-05-22T19:42:01.431Z,53.31
2019-05-22T19:44:25.233Z,53.57
2019-05-22T19:46:59.966Z,53.22
2019-05-22T19:49:35.162Z,54.61
2019-05-22T19:52:09.929Z,54.88
2019-05-22T19:54:44.485Z,55.22
2019-05-22T19:57:18.489Z,56.53
2019-05-22T19:59:52.808Z,56.22
2019-05-22T20:02:27.415Z,55.64
2019-05-22T20:05:01.763Z,55.11
2019-05-22T20:07:39.362Z,55.09
2019-05-22T20:10:14.073Z,54.99
2019-05-22T20:12:48.607Z,55.56
2019-05-22T20:15:23.221Z,55.93
2019-05-22T20:17:57.553Z,55.50
2019-05-22T20:20:31.749Z,56.93
2019-05-22T20:23:06.113Z,57.57
2019-05-22T20:25:40.471Z,58.32
2019-05-22T20:28:14.404Z,57.52
2019-05-22T20:30:49.054Z,57.14
2019-05-22T20:33:26.881Z,56.77
2019-05-22T20:35:59.399Z,56.41
2019-05-22T20:38:33.969Z,56.10
2019-05-22T20:41:08.153Z,55.89
2019-05-22T20:43:42.453Z,55.69
2019-05-22T20:46:19.290Z,55.53
2019-05-22T20:48:57.369Z,55.58
2019-05-22T20:51:31.756Z,56.10
2019-05-22T20:54:07.133Z,56.85
2019-05-22T20:56:44.629Z,57.71
2019-05-22T20:59:19.335Z,58.61
2019-05-22T21:01:53.752Z,57.25
2019-05-22T21:04:27.980Z,55.97
2019-05-22T21:07:06.144Z,55.21
2019-05-22T21:09:40.670Z,54.38
2019-05-22T21:12:14.996Z,53.80
2019-05-22T21:14:49.154Z,54.25
2019-05-22T21:17:23.538Z,55.26
2019-05-22T21:19:59.499Z,56.59
2019-05-22T21:22:34.191Z,57.90
2019-05-22T21:25:09.318Z,58.50
2019-05-22T21:27:44.085Z,58.48
2019-05-22T21:30:19.955Z,59.43
2019-05-22T21:32:54.450Z,59.76
2019-05-22T21:35:29.339Z,59.59
2019-05-22T21:38:04.730Z,59.46
2019-05-22T21:40:39.061Z,59.30
2019-05-22T21:43:13.503Z,59.16
2019-05-22T21:45:47.759Z,60.04
2019-05-22T21:48:22.154Z,58.72
2019-05-22T21:50:56.737Z,57.53
2019-05-22T21:53:31.232Z,57.18
2019-05-22T21:56:06.330Z,56.70
2019-05-22T21:58:40.710Z,56.51
2019-05-22T22:01:24.868Z,56.39
2019-05-22T22:04:06.383Z,56.11
2019-05-22T22:06:40.909Z,56.01
2019-05-22T22:09:16.954Z,55.85
2019-05-22T22:11:51.959Z,55.71
2019-05-22T22:14:27.478Z,56.13
2019-05-22T22:17:03.349Z,56.44
2019-05-22T22:19:38.958Z,57.37
2019-05-22T22:22:16.804Z,58.39
2019-05-22T22:24:52.004Z,59.07
2019-05-22T22:27:26.732Z,58.20
2019-05-22T22:30:01.083Z,57.85
2019-05-22T22:32:36.847Z,57.78
2019-05-22T22:35:14.147Z,57.99
2019-05-22T22:37:48.849Z,58.20
2019-05-22T22:40:27.579Z,58.30
2019-05-22T22:43:04.253Z,58.33
2019-05-22T22:45:45.637Z,59.42
2019-05-22T22:48:23.751Z,58.91
2019-05-22T22:50:58.165Z,58.36
2019-05-22T22:53:33.140Z,58.16
2019-05-22T22:56:10.093Z,57.77
2019-05-22T22:58:44.322Z,57.37
2019-05-22T23:01:24.346Z,57.08
2019-05-22T23:04:01.834Z,56.85
2019-05-22T23:06:36.741Z,56.57
2019-05-22T23:09:13.044Z,56.44
2019-05-22T23:11:49.289Z,56.33
2019-05-22T23:14:23.885Z,56.19
2019-05-22T23:16:58.365Z,56.02
2019-05-22T23:19:42.181Z,55.99
2019-05-22T23:22:18.464Z,54.96
2019-05-22T23:24:53.937Z,55.30
2019-05-22T23:27:28.032Z,55.94
2019-05-22T23:30:03.533Z,56.49
2019-05-22T23:32:38.417Z,57.42
2019-05-22T23:35:13.763Z,58.67
2019-05-22T23:37:47.760Z,59.32
2019-05-22T23:40:28.228Z,58.30
2019-05-22T23:43:02.806Z,57.87
2019-05-22T23:45:36.887Z,57.53
2019-05-22T23:48:18.124Z,57.28
2019-05-22T23:50:52.933Z,57.06
2019-05-22T23:53:27.745Z,56.69
2019-05-22T23:56:02.275Z,56.55
2019-05-22T23:58:51.507Z,55.88
